Time;durP1;ratioP1;P1;durP2;ratioP2;P2;SDS_P1;SDS_P2;PMS_P1;PMS_P2;Temp;Humidity;BMP_temperature;BMP_pressure;BME280_temperature;BME280_humidity;BME280_pressure;Samples;Min_cycle;Max_cycle;Signal;HPM_P1;HPM_P2
2024/04/16 00:01:12;;;;;;;;;;;;;;;19.67;35.03;92580.69;3380591;26;1029;-71
2024/04/16 00:02:44;;;;;;;;;;;;;;;19.66;35.45;92579.13;3357712;26;1002;-71
2024/04/16 00:04:16;;;;;;;;;;;;;;;19.64;35.36;92581.41;3379078;26;991;-71
2024/04/16 00:05:48;;;;;;;;;;;;;;;19.54;35.32;92580.09;3387499;26;994;-71
2024/04/16 00:07:20;;;;;;;;;;;;;;;19.50;35.44;92575.75;3387616;26;954;-71
2024/04/16 00:08:52;;;;;;;;;;;;;;;19.49;35.23;92576.91;3379177;26;1010;-71
2024/04/16 00:10:24;;;;;;;;;;;;;;;19.51;35.42;92574.63;3387194;26;999;-71
2024/04/16 00:11:55;;;;;;;;;;;;;;;19.49;35.44;92569.53;3385756;26;1835;-71
2024/04/16 00:13:27;;;;;;;;;;;;;;;19.43;35.43;92570.94;3378738;26;973;-71
2024/04/16 00:15:00;;;;;;;;;;;;;;;19.40;35.37;92568.97;3386702;26;956;-71
2024/04/16 00:16:32;;;;;;;;;;;;;;;19.39;35.62;92575.56;3387252;26;955;-71
2024/04/16 00:18:04;;;;;;;;;;;;;;;19.37;35.44;92571.63;3385613;26;989;-71
2024/04/16 00:19:36;;;;;;;;;;;;;;;19.39;35.59;92574.78;3363856;26;1069;-71
2024/04/16 00:21:08;;;;;;;;;;;;;;;19.36;35.50;92576.28;3378825;26;967;-71
2024/04/16 00:22:41;;;;;;;;;;;;;;;19.32;35.47;92569.97;3385558;26;1572;-71
2024/04/16 00:24:12;;;;;;;;;;;;;;;19.32;35.98;92578.13;3386431;26;1016;-71
2024/04/16 00:25:44;;;;;;;;;;;;;;;19.38;35.69;92573.19;3386686;26;990;-71
2024/04/16 00:27:16;;;;;;;;;;;;;;;19.37;35.40;92571.63;3385001;26;946;-71
2024/04/16 00:28:48;;;;;;;;;;;;;;;19.34;35.58;92573.13;3385780;26;1023;-71
2024/04/16 00:30:20;;;;;;;;;;;;;;;19.28;35.63;92571.09;3385957;26;938;-71
2024/04/16 00:31:52;;;;;;;;;;;;;;;19.22;35.78;92571.38;3363079;26;986;-71
2024/04/16 00:33:24;;;;;;;;;;;;;;;19.19;36.44;92563.94;3379509;26;1918;-71
2024/04/16 00:34:56;;;;;;;;;;;;;;;19.20;36.00;92570.94;3363716;26;1026;-71
2024/04/16 00:36:28;;;;;;;;;;;;;;;19.19;35.83;92572.09;3357486;26;1047;-71
2024/04/16 00:38:00;;;;;;;;;;;;;;;19.19;36.02;92568.59;3372225;26;976;-71
2024/04/16 00:39:32;;;;;;;;;;;;;;;19.18;36.32;92561.59;3401389;26;1210;-71
2024/04/16 00:41:04;;;;;;;;;;;;;;;19.18;36.46;92567.81;3363533;26;990;-71
2024/04/16 00:42:36;;;;;;;;;;;;;;;19.18;35.96;92572.47;3371117;26;1042;-71
2024/04/16 00:44:08;;;;;;;;;;;;;;;19.17;36.54;92573.63;3378934;26;1052;-71
2024/04/16 00:45:40;;;;;;;;;;;;;;;19.13;36.47;92568.09;3378766;26;1040;-71
2024/04/16 00:47:12;;;;;;;;;;;;;;;19.11;36.47;92561.44;3386427;26;1008;-71
2024/04/16 00:48:44;;;;;;;;;;;;;;;19.13;36.04;92567.31;3386904;26;980;-71
2024/04/16 00:50:16;;;;;;;;;;;;;;;19.09;36.47;92564.53;3385958;26;1020;-71
2024/04/16 00:51:47;;;;;;;;;;;;;;;19.04;36.16;92555.91;3384458;26;1124;-71
2024/04/16 00:53:20;;;;;;;;;;;;;;;19.02;36.68;92558.19;3386269;26;1870;-71
2024/04/16 00:54:51;;;;;;;;;;;;;;;19.04;36.58;92559.41;3362691;26;1015;-71
2024/04/16 00:56:24;;;;;;;;;;;;;;;19.01;36.89;92557.41;3370626;26;1038;-71
2024/04/16 00:57:56;;;;;;;;;;;;;;;19.07;36.57;92552.47;3386038;26;1097;-71
2024/04/16 00:59:27;;;;;;;;;;;;;;;19.13;36.80;92556.44;3384683;26;1042;-71
2024/04/16 01:01:00;;;;;;;;;;;;;;;19.13;36.78;92546.34;3377330;26;1025;-71
2024/04/16 01:02:33;;;;;;;;;;;;;;;19.11;36.30;92554.06;3386822;26;1053;-71
2024/04/16 01:04:05;;;;;;;;;;;;;;;19.13;36.25;92545.56;3388177;26;1005;-71
2024/04/16 01:05:38;;;;;;;;;;;;;;;19.14;36.73;92552.56;3380220;26;1737;-71
2024/04/16 01:07:09;;;;;;;;;;;;;;;19.13;36.30;92564.59;3380529;26;1439;-72
2024/04/16 01:08:41;;;;;;;;;;;;;;;19.13;36.34;92551.00;3380601;26;991;-72
2024/04/16 01:10:13;;;;;;;;;;;;;;;19.12;36.90;92550.22;3380203;26;1023;-71
2024/04/16 01:11:48;;;;;;;;;;;;;;;19.09;36.92;92552.84;3380011;26;1008;-71
2024/04/16 01:13:19;;;;;;;;;;;;;;;19.11;36.29;92554.06;3359031;26;1837;-71
2024/04/16 01:14:51;;;;;;;;;;;;;;;19.11;36.46;92545.13;3379960;26;1024;-71
2024/04/16 01:16:23;;;;;;;;;;;;;;;19.10;36.30;92547.06;3388429;26;1043;-71
2024/04/16 01:17:56;;;;;;;;;;;;;;;19.08;36.56;92549.34;3386594;26;1030;-71
2024/04/16 01:19:28;;;;;;;;;;;;;;;19.05;36.64;92544.66;3387343;26;927;-72
2024/04/16 01:21:00;;;;;;;;;;;;;;;18.99;37.06;92537.94;3386992;26;1023;-71
2024/04/16 01:22:32;;;;;;;;;;;;;;;18.94;37.06;92538.25;3387259;26;1026;-71
2024/04/16 01:24:04;;;;;;;;;;;;;;;18.91;36.81;92538.97;3386149;26;994;-71
2024/04/16 01:25:36;;;;;;;;;;;;;;;18.86;37.25;92547.41;3357375;26;1002;-71
2024/04/16 01:27:08;;;;;;;;;;;;;;;18.88;37.03;92555.19;3396799;26;1019;-72
2024/04/16 01:28:39;;;;;;;;;;;;;;;18.88;36.88;92544.31;3394519;26;963;-71
2024/04/16 01:30:12;;;;;;;;;;;;;;;18.90;37.04;92547.47;3386430;26;1026;-71
2024/04/16 01:31:43;;;;;;;;;;;;;;;18.93;37.24;92549.47;3387280;26;986;-71
2024/04/16 01:33:15;;;;;;;;;;;;;;;18.91;37.17;92544.41;3387062;26;1840;-71
2024/04/16 01:34:48;;;;;;;;;;;;;;;18.86;36.85;92547.41;3386242;26;1469;-71
2024/04/16 01:36:20;;;;;;;;;;;;;;;18.86;36.70;92533.81;3387865;26;963;-71
2024/04/16 01:37:51;;;;;;;;;;;;;;;18.84;36.89;92538.84;3386938;26;1030;-71
2024/04/16 01:39:23;;;;;;;;;;;;;;;18.84;37.03;92533.41;3364937;26;1220;-71
2024/04/16 01:40:55;;;;;;;;;;;;;;;18.86;36.81;92531.09;3380175;26;998;-71
2024/04/16 01:42:30;;;;;;;;;;;;;;;18.84;37.27;92528.75;3403139;26;946;-71
2024/04/16 01:44:02;;;;;;;;;;;;;;;18.85;37.29;92524.06;3364370;26;1444;-71
2024/04/16 01:45:34;;;;;;;;;;;;;;;18.84;37.30;92522.53;3379119;26;1521;-71
2024/04/16 01:47:06;;;;;;;;;;;;;;;18.80;37.04;92527.09;3380221;26;998;-71
2024/04/16 01:48:38;;;;;;;;;;;;;;;18.80;37.04;92527.88;3379938;26;1054;-71
2024/04/16 01:50:10;;;;;;;;;;;;;;;18.84;37.21;92525.25;3388209;26;969;-71
2024/04/16 01:51:41;;;;;;;;;;;;;;;18.86;37.27;92525.66;3387207;26;1537;-71
2024/04/16 01:53:13;;;;;;;;;;;;;;;18.85;37.22;92516.69;3380090;26;1880;-71
2024/04/16 01:54:45;;;;;;;;;;;;;;;18.82;37.22;92519.38;3387717;26;1051;-71
2024/04/16 01:56:17;;;;;;;;;;;;;;;18.82;37.33;92528.31;3387366;26;970;-71
2024/04/16 01:57:50;;;;;;;;;;;;;;;18.83;36.90;92527.16;3380282;26;1040;-71
2024/04/16 01:59:22;;;;;;;;;;;;;;;18.84;37.48;92527.97;3388261;26;1037;-71
2024/04/16 02:01:00;;;;;;;;;;;;;;;18.84;36.96;92522.53;3388420;26;974;-71
2024/04/16 02:02:34;;;;;;;;;;;;;;;18.84;37.47;92523.31;3388273;26;961;-71
2024/04/16 02:04:06;;;;;;;;;;;;;;;18.83;37.47;92523.66;3388535;26;953;-71
2024/04/16 02:05:40;;;;;;;;;;;;;;;18.88;37.17;92522.56;3387383;26;1025;-71
2024/04/16 02:07:12;;;;;;;;;;;;;;;18.86;37.03;92517.47;3357898;26;1024;-71
2024/04/16 02:08:44;;;;;;;;;;;;;;;18.84;37.32;92508.94;3380466;26;1024;-71
2024/04/16 02:10:16;;;;;;;;;;;;;;;18.82;37.22;92519.38;3387676;26;994;-71
2024/04/16 02:11:48;;;;;;;;;;;;;;;18.82;37.15;92522.09;3387241;26;970;-71
2024/04/16 02:13:21;;;;;;;;;;;;;;;18.80;37.65;92519.72;3379051;26;1868;-72
2024/04/16 02:14:53;;;;;;;;;;;;;;;18.79;37.46;92520.09;3379169;26;988;-71
2024/04/16 02:16:25;;;;;;;;;;;;;;;18.76;37.67;92521.59;3379486;26;1012;-71
2024/04/16 02:17:56;;;;;;;;;;;;;;;18.77;37.59;92520.44;3379684;26;1254;-71
2024/04/16 02:19:29;;;;;;;;;;;;;;;18.77;37.60;92517.72;3379193;26;1681;-71
2024/04/16 02:21:01;;;;;;;;;;;;;;;18.74;37.46;92523.88;3379314;26;1003;-71
2024/04/16 02:22:33;;;;;;;;;;;;;;;18.73;37.36;92516.09;3379929;26;1029;-71
2024/04/16 02:24:06;;;;;;;;;;;;;;;18.72;37.77;92511.81;3387622;26;888;-71
2024/04/16 02:25:45;;;;;;;;;;;;;;;18.68;37.87;92514.47;3386959;26;1030;-71
2024/04/16 02:27:18;;;;;;;;;;;;;;;18.70;37.32;92517.59;3387357;26;1471;-71
2024/04/16 02:28:49;;;;;;;;;;;;;;;18.74;37.55;92512.22;3387054;26;1027;-71
2024/04/16 02:30:21;;;;;;;;;;;;;;;18.75;37.18;92511.84;3379818;26;1028;-71
2024/04/16 02:31:53;;;;;;;;;;;;;;;18.76;37.76;92509.94;3387640;26;1075;-71
2024/04/16 02:33:25;;;;;;;;;;;;;;;18.75;37.91;92508.34;3386324;26;1883;-71
2024/04/16 02:34:57;;;;;;;;;;;;;;;18.73;37.50;92513.38;3387800;26;942;-71
2024/04/16 02:36:29;;;;;;;;;;;;;;;18.74;37.96;92517.66;3386027;26;1312;-71
2024/04/16 02:38:01;;;;;;;;;;;;;;;18.72;37.45;92509.88;3379515;26;1004;-71
2024/04/16 02:39:33;;;;;;;;;;;;;;;18.71;37.65;92515.69;3356734;26;1176;-71
2024/04/16 02:41:05;;;;;;;;;;;;;;;18.65;37.95;92511.66;3394147;26;990;-71
2024/04/16 02:42:37;;;;;;;;;;;;;;;18.59;37.59;92516.63;3385746;26;1030;-71
2024/04/16 02:44:10;;;;;;;;;;;;;;;18.54;37.65;92516.09;3385865;26;952;-71
2024/04/16 02:45:42;;;;;;;;;;;;;;;18.51;37.74;92514.84;3387305;26;1431;-71
2024/04/16 02:47:14;;;;;;;;;;;;;;;18.51;37.59;92517.56;3386475;26;966;-71
2024/04/16 02:48:46;;;;;;;;;;;;;;;18.54;38.15;92508.72;3379578;26;1108;-71
2024/04/16 02:50:18;;;;;;;;;;;;;;;18.56;38.09;92517.31;3387048;26;977;-71
2024/04/16 02:51:49;;;;;;;;;;;;;;;18.56;38.01;92522.75;3387273;26;1144;-71
2024/04/16 02:53:21;;;;;;;;;;;;;;;18.56;38.02;92505.66;3387468;26;1880;-71
2024/04/16 02:54:55;;;;;;;;;;;;;;;18.55;37.81;92509.50;3385955;26;997;-71
2024/04/16 02:56:27;;;;;;;;;;;;;;;18.57;37.60;92512.66;3387313;26;1023;-71
2024/04/16 02:57:59;;;;;;;;;;;;;;;18.61;38.06;92510.81;3386537;26;855;-71
2024/04/16 02:59:31;;;;;;;;;;;;;;;18.62;37.82;92504.25;3386941;26;1016;-71
2024/04/16 03:01:04;;;;;;;;;;;;;;;18.61;38.25;92502.69;3386462;26;1022;-71
2024/04/16 03:02:36;;;;;;;;;;;;;;;18.59;37.90;92494.09;3379392;26;1001;-71
2024/04/16 03:04:08;;;;;;;;;;;;;;;18.56;37.94;92497.50;3379151;26;1036;-71
2024/04/16 03:05:40;;;;;;;;;;;;;;;18.52;37.91;92489.25;3379575;26;1043;-71
2024/04/16 03:07:12;;;;;;;;;;;;;;;18.51;38.14;92487.69;3356997;26;1031;-71
2024/04/16 03:08:44;;;;;;;;;;;;;;;18.50;37.93;92486.94;3380355;26;967;-71
2024/04/16 03:10:16;;;;;;;;;;;;;;;18.48;37.92;92486.50;3364210;26;1029;-71
2024/04/16 03:11:48;;;;;;;;;;;;;;;18.47;37.81;92490.34;3379871;26;1140;-71
2024/04/16 03:13:20;;;;;;;;;;;;;;;18.46;38.42;92490.72;3386131;26;1844;-71
2024/04/16 03:14:52;;;;;;;;;;;;;;;18.47;38.34;92493.06;3378986;26;1016;-71
2024/04/16 03:16:25;;;;;;;;;;;;;;;18.48;38.47;92499.28;3379263;26;936;-71
2024/04/16 03:17:57;;;;;;;;;;;;;;;18.48;37.93;92500.09;3386483;26;1063;-71
2024/04/16 03:19:29;;;;;;;;;;;;;;;18.46;37.88;92491.50;3385910;26;1007;-71
2024/04/16 03:21:01;;;;;;;;;;;;;;;18.45;37.88;92500.00;3378730;26;1029;-71
2024/04/16 03:22:32;;;;;;;;;;;;;;;18.42;38.52;92498.78;3378919;26;939;-71
2024/04/16 03:24:05;;;;;;;;;;;;;;;18.41;37.95;92499.94;3378748;26;1019;-71
2024/04/16 03:25:40;;;;;;;;;;;;;;;18.39;37.94;92510.41;3379019;26;1455;-71
2024/04/16 03:27:12;;;;;;;;;;;;;;;18.38;37.97;92503.38;3386940;26;1016;-71
2024/04/16 03:28:44;;;;;;;;;;;;;;;18.42;37.99;92512.38;3385829;26;1035;-71
2024/04/16 03:30:16;;;;;;;;;;;;;;;18.42;38.49;92506.16;3378519;26;1430;-71
2024/04/16 03:31:47;;;;;;;;;;;;;;;18.44;37.98;92499.22;3379376;26;1008;-71
2024/04/16 03:33:20;;;;;;;;;;;;;;;18.47;37.94;92503.94;3378897;26;1021;-71
2024/04/16 03:34:51;;;;;;;;;;;;;;;18.46;38.02;92507.81;3378902;26;1845;-71
2024/04/16 03:36:23;;;;;;;;;;;;;;;18.47;38.59;92503.94;3357323;26;1043;-71
2024/04/16 03:37:55;;;;;;;;;;;;;;;18.51;37.98;92504.00;3372024;26;1265;-71
2024/04/16 03:39:26;;;;;;;;;;;;;;;18.54;37.98;92499.78;3356802;26;1281;-71
2024/04/16 03:41:00;;;;;;;;;;;;;;;18.54;38.64;92499.78;3357239;26;998;-71
2024/04/16 03:42:32;;;;;;;;;;;;;;;18.50;38.55;92497.78;3373440;26;985;-71
2024/04/16 03:44:04;;;;;;;;;;;;;;;18.47;38.10;92506.66;3386989;26;1045;-71
2024/04/16 03:45:36;;;;;;;;;;;;;;;18.46;38.63;92499.66;3385922;26;1090;-71
2024/04/16 03:47:07;;;;;;;;;;;;;;;18.46;38.78;92507.03;3379112;26;934;-71
2024/04/16 03:48:39;;;;;;;;;;;;;;;18.44;38.73;92512.81;3379279;26;1001;-71
2024/04/16 03:50:11;;;;;;;;;;;;;;;18.39;38.21;92501.47;3386128;26;1007;-71
2024/04/16 03:51:43;;;;;;;;;;;;;;;18.31;38.72;92500.50;3385733;26;1429;-71
2024/04/16 03:53:15;;;;;;;;;;;;;;;18.26;38.37;92503.53;3386779;26;1434;-71
2024/04/16 03:54:47;;;;;;;;;;;;;;;18.18;38.73;92493.66;3386507;26;1829;-71
2024/04/16 03:56:18;;;;;;;;;;;;;;;18.13;38.53;92496.66;3379179;26;1533;-71
2024/04/16 03:57:50;;;;;;;;;;;;;;;18.11;38.71;92493.50;3379338;26;1001;-71
2024/04/16 03:59:38;;;;;;;;;;;;;;;18.11;38.66;92493.50;3379431;26;980;-71
2024/04/16 04:01:12;;;;;;;;;;;;;;;18.09;39.05;92506.66;3382696;26;1003;-71
2024/04/16 04:02:44;;;;;;;;;;;;;;;18.09;39.05;92512.09;3384184;26;1152;-71
2024/04/16 04:04:16;;;;;;;;;;;;;;;18.11;38.57;92507.09;3379354;26;1032;-71
2024/04/16 04:05:48;;;;;;;;;;;;;;;18.10;39.20;92510.94;3356515;26;1424;-71
2024/04/16 04:07:20;;;;;;;;;;;;;;;18.11;39.09;92513.31;3372502;26;1505;-71
2024/04/16 04:08:52;;;;;;;;;;;;;;;18.16;39.13;92501.38;3378687;26;1050;-71
2024/04/16 04:10:24;;;;;;;;;;;;;;;18.18;38.75;92504.50;3378940;26;981;-71
2024/04/16 04:11:56;;;;;;;;;;;;;;;18.17;38.70;92507.63;3386554;26;1007;-71
2024/04/16 04:13:28;;;;;;;;;;;;;;;18.16;39.18;92504.09;3386903;26;995;-71
2024/04/16 04:15:00;;;;;;;;;;;;;;;18.14;38.71;92506.38;3386985;26;1837;-71
2024/04/16 04:16:32;;;;;;;;;;;;;;;18.17;39.19;92513.03;3379617;26;942;-71
2024/04/16 04:18:04;;;;;;;;;;;;;;;18.17;39.17;92513.03;3357010;26;978;-71
2024/04/16 04:19:36;;;;;;;;;;;;;;;18.17;39.06;92502.19;3379612;26;1021;-71
2024/04/16 04:21:08;;;;;;;;;;;;;;;18.14;38.71;92509.09;3387622;26;1277;-71
2024/04/16 04:22:40;;;;;;;;;;;;;;;18.12;38.78;92506.75;3364311;26;1010;-71
2024/04/16 04:24:17;;;;;;;;;;;;;;;18.12;39.21;92514.09;3373266;26;955;-71
2024/04/16 04:25:51;;;;;;;;;;;;;;;18.12;38.92;92506.75;3387409;26;1483;-71
2024/04/16 04:27:23;;;;;;;;;;;;;;;18.15;39.42;92507.97;3386579;26;1020;-71
2024/04/16 04:28:56;;;;;;;;;;;;;;;18.17;38.87;92502.19;3378868;26;1274;-71
2024/04/16 04:30:27;;;;;;;;;;;;;;;18.24;39.29;92508.53;3386998;26;916;-71
2024/04/16 04:32:00;;;;;;;;;;;;;;;18.32;39.15;92512.94;3386253;26;1023;-71
2024/04/16 04:33:32;;;;;;;;;;;;;;;18.39;38.68;92513.13;3379185;26;954;-71
2024/04/16 04:35:04;;;;;;;;;;;;;;;18.41;38.81;92505.38;3375744;26;1829;-71
2024/04/16 04:36:36;;;;;;;;;;;;;;;18.45;38.79;92516.31;3377682;26;1003;-71
2024/04/16 04:38:08;;;;;;;;;;;;;;;18.52;39.16;92511.78;3376803;26;986;-72
2024/04/16 04:39:39;;;;;;;;;;;;;;;18.56;38.74;92516.50;3377305;26;1022;-72
2024/04/16 04:41:11;;;;;;;;;;;;;;;18.63;38.67;92524.81;3377987;26;957;-72
2024/04/16 04:42:43;;;;;;;;;;;;;;;18.67;38.71;92528.41;3378107;26;994;-72
2024/04/16 04:44:15;;;;;;;;;;;;;;;18.70;38.87;92527.69;3377250;26;1451;-72
2024/04/16 04:45:47;;;;;;;;;;;;;;;18.70;38.88;92533.91;3377315;26;1409;-72
2024/04/16 04:47:20;;;;;;;;;;;;;;;18.73;39.13;92530.50;3377859;26;978;-72
2024/04/16 04:48:52;;;;;;;;;;;;;;;18.76;39.23;92532.47;3355454;26;976;-72
2024/04/16 04:50:24;;;;;;;;;;;;;;;18.81;39.21;92534.91;3370363;26;1037;-72
2024/04/16 04:51:55;;;;;;;;;;;;;;;18.83;39.13;92529.09;3377315;26;1041;-72
2024/04/16 04:53:27;;;;;;;;;;;;;;;18.83;38.95;92534.53;3377477;26;954;-72
2024/04/16 04:55:03;;;;;;;;;;;;;;;18.89;38.71;92535.81;3385213;26;1833;-72
2024/04/16 04:56:35;;;;;;;;;;;;;;;18.91;38.68;92538.16;3385717;26;974;-72
2024/04/16 04:58:07;;;;;;;;;;;;;;;18.94;39.20;92527.38;3384335;26;1009;-72
2024/04/16 04:59:39;;;;;;;;;;;;;;;18.96;39.07;92527.75;3377298;26;1013;-72
2024/04/16 05:01:11;;;;;;;;;;;;;;;19.00;39.25;92516.97;3385048;26;1002;-72
2024/04/16 05:02:43;;;;;;;;;;;;;;;18.99;39.24;92509.94;3386105;26;964;-72
2024/04/16 05:04:14;;;;;;;;;;;;;;;18.93;39.00;92512.19;3384615;26;1093;-72
2024/04/16 05:05:46;;;;;;;;;;;;;;;18.84;38.96;92514.38;3385388;26;1038;-72
2024/04/16 05:07:18;;;;;;;;;;;;;;;18.80;39.57;92519.72;3362280;26;959;-72
2024/04/16 05:08:50;;;;;;;;;;;;;;;18.81;39.57;92512.34;3369876;26;1045;-72
2024/04/16 05:10:24;;;;;;;;;;;;;;;18.78;39.14;92516.59;3376723;26;994;-71
2024/04/16 05:11:55;;;;;;;;;;;;;;;18.82;39.13;92517.44;3377521;26;942;-71
2024/04/16 05:13:27;;;;;;;;;;;;;;;18.86;39.68;92507.41;3355214;26;1481;-72
2024/04/16 05:14:59;;;;;;;;;;;;;;;18.91;39.69;92505.53;3377937;26;1878;-72
2024/04/16 05:16:32;;;;;;;;;;;;;;;18.97;39.33;92498.63;3385212;26;999;-72
2024/04/16 05:18:04;;;;;;;;;;;;;;;19.08;39.36;92503.09;3361705;26;1017;-72
2024/04/16 05:19:35;;;;;;;;;;;;;;;19.23;39.07;92501.41;3378055;26;958;-72
2024/04/16 05:21:08;;;;;;;;;;;;;;;19.35;38.75;92501.22;3361460;26;1025;-72
2024/04/16 05:22:40;;;;;;;;;;;;;;;19.46;39.11;92493.22;3392714;26;1012;-72
2024/04/16 05:24:12;;;;;;;;;;;;;;;19.54;39.24;92486.75;3383742;26;975;-72
2024/04/16 05:25:53;;;;;;;;;;;;;;;19.66;39.10;92491.22;3384601;26;1026;-72
2024/04/16 05:27:26;;;;;;;;;;;;;;;19.72;39.13;92495.22;3383345;26;1415;-72
2024/04/16 05:28:58;;;;;;;;;;;;;;;19.79;39.26;92487.13;3383818;26;991;-72
2024/04/16 05:30:30;;;;;;;;;;;;;;;19.81;39.43;92482.88;3376483;26;1476;-72
2024/04/16 05:32:04;;;;;;;;;;;;;;;19.89;38.84;92483.75;3376686;26;979;-72
2024/04/16 05:33:35;;;;;;;;;;;;;;;20.01;39.01;92497.16;3361541;26;1425;-72
2024/04/16 05:35:07;;;;;;;;;;;;;;;20.10;38.88;92494.16;3376420;26;1832;-72
2024/04/16 05:36:39;;;;;;;;;;;;;;;20.22;39.06;92499.38;3399551;26;945;-72
2024/04/16 05:38:11;;;;;;;;;;;;;;;20.29;38.78;92496.75;3391636;26;1190;-72
2024/04/16 05:39:43;;;;;;;;;;;;;;;20.35;38.82;92500.72;3383898;26;1015;-72
2024/04/16 05:41:15;;;;;;;;;;;;;;;20.50;38.76;92502.47;3354435;26;1441;-72
2024/04/16 05:42:47;;;;;;;;;;;;;;;20.65;38.61;92498.72;3354397;26;1009;-72
2024/04/16 05:44:19;;;;;;;;;;;;;;;20.76;38.51;92504.34;3369678;26;1043;-72
2024/04/16 05:45:50;;;;;;;;;;;;;;;20.82;38.41;92499.31;3354172;26;1016;-72
2024/04/16 05:47:22;;;;;;;;;;;;;;;20.91;38.25;92507.97;3377331;26;1024;-72
2024/04/16 05:48:54;;;;;;;;;;;;;;;20.98;38.34;92500.66;3385090;26;975;-72
2024/04/16 05:50:26;;;;;;;;;;;;;;;21.02;38.40;92495.22;3385434;26;1000;-72
2024/04/16 05:51:58;;;;;;;;;;;;;;;21.02;38.51;92498.72;3386708;26;1056;-72
2024/04/16 05:53:30;;;;;;;;;;;;;;;21.00;38.52;92498.31;3385824;26;965;-72
2024/04/16 05:55:02;;;;;;;;;;;;;;;21.03;38.34;92496.78;3356525;26;1896;-72
2024/04/16 05:56:34;;;;;;;;;;;;;;;21.03;38.43;92492.13;3379690;26;1018;-72
2024/04/16 05:58:08;;;;;;;;;;;;;;;21.03;38.52;92483.16;3385788;26;961;-72
2024/04/16 05:59:40;;;;;;;;;;;;;;;21.02;38.60;92485.09;3386656;26;958;-72
2024/04/16 06:01:12;;;;;;;;;;;;;;;21.02;38.52;92487.03;3385682;26;961;-72
2024/04/16 06:02:44;;;;;;;;;;;;;;;21.09;38.29;92481.66;3356662;26;978;-72
2024/04/16 06:04:16;;;;;;;;;;;;;;;21.13;38.37;92474.28;3363739;26;968;-72
2024/04/16 06:05:48;;;;;;;;;;;;;;;21.25;38.22;92489.59;3356416;26;987;-72
2024/04/16 06:07:20;;;;;;;;;;;;;;;21.31;38.19;92482.66;3371668;26;964;-72
2024/04/16 06:08:51;;;;;;;;;;;;;;;21.40;38.23;92476.88;3386567;26;1029;-72
2024/04/16 06:10:23;;;;;;;;;;;;;;;21.50;38.02;92476.16;3385591;26;962;-72
2024/04/16 06:11:55;;;;;;;;;;;;;;;21.58;37.56;92472.31;3356294;26;1041;-72
2024/04/16 06:13:27;;;;;;;;;;;;;;;21.60;37.72;92472.72;3378585;26;1028;-72
2024/04/16 06:14:59;;;;;;;;;;;;;;;21.60;37.96;92468.03;3401055;26;1844;-72
2024/04/16 06:16:30;;;;;;;;;;;;;;;21.63;37.96;92477.44;3385890;26;1016;-72
2024/04/16 06:18:08;;;;;;;;;;;;;;;21.73;37.41;92473.97;3386500;26;1046;-72
2024/04/16 06:19:43;;;;;;;;;;;;;;;21.82;37.48;92474.41;3385702;26;991;-72
2024/04/16 06:21:15;;;;;;;;;;;;;;;21.81;37.74;92470.13;3386619;26;1035;-72
2024/04/16 06:22:47;;;;;;;;;;;;;;;21.77;37.43;92466.59;3363111;26;1444;-72
2024/04/16 06:24:20;;;;;;;;;;;;;;;21.74;37.73;92462.69;3379692;26;979;-72
2024/04/16 06:25:52;;;;;;;;;;;;;;;21.74;37.61;92459.16;3386915;26;990;-71
2024/04/16 06:27:24;;;;;;;;;;;;;;;21.74;37.65;92453.69;3385417;26;1010;-73
2024/04/16 06:28:55;;;;;;;;;;;;;;;21.76;37.15;92451.38;3378560;26;1014;-72
2024/04/16 06:30:27;;;;;;;;;;;;;;;21.80;37.39;92443.97;3378755;26;1007;-72
2024/04/16 06:31:59;;;;;;;;;;;;;;;21.82;36.98;92438.13;3386317;26;1001;-72
2024/04/16 06:33:33;;;;;;;;;;;;;;;21.79;37.42;92445.13;3363412;26;970;-72
2024/04/16 06:35:05;;;;;;;;;;;;;;;21.81;37.12;92442.81;3356445;26;1867;-72
2024/04/16 06:36:37;;;;;;;;;;;;;;;21.84;37.39;92441.25;3371424;26;1025;-72
2024/04/16 06:38:12;;;;;;;;;;;;;;;21.85;37.32;92437.38;3401691;26;1463;-72
2024/04/16 06:39:45;;;;;;;;;;;;;;;21.81;37.01;92437.34;3385349;26;1000;-72
2024/04/16 06:41:17;;;;;;;;;;;;;;;21.79;37.46;92434.19;3385302;26;963;-72
2024/04/16 06:42:54;;;;;;;;;;;;;;;21.82;37.22;92438.91;3378726;26;1165;-71
2024/04/16 06:44:26;;;;;;;;;;;;;;;21.85;37.02;92435.41;3379371;26;1018;-72
2024/04/16 06:45:58;;;;;;;;;;;;;;;21.94;37.03;92444.06;3379436;26;1313;-72
2024/04/16 06:47:30;;;;;;;;;;;;;;;22.00;36.48;92441.78;3378586;26;1019;-72
2024/04/16 06:49:02;;;;;;;;;;;;;;;22.12;36.68;92440.66;3379055;26;1010;-72
2024/04/16 06:50:47;;;;;;;;;;;;;;;22.14;36.21;92433.63;3382438;26;1535;-73
2024/04/16 06:52:19;;;;;;;;;;;;;;;22.15;36.40;92434.41;3381465;26;1506;-72
2024/04/16 06:53:51;;;;;;;;;;;;;;;22.11;36.17;92433.63;3386757;26;982;-72
2024/04/16 06:55:22;;;;;;;;;;;;;;;22.07;36.74;92439.06;3363360;26;1833;-72
2024/04/16 06:56:54;;;;;;;;;;;;;;;22.09;36.37;92434.78;3371918;26;1049;-71
2024/04/16 06:58:26;;;;;;;;;;;;;;;22.11;36.37;92430.91;3356541;26;1620;-71
2024/04/16 06:59:58;;;;;;;;;;;;;;;22.15;36.33;92424.25;3379011;26;1040;-71
2024/04/16 07:01:30;;;;;;;;;;;;;;;22.20;36.19;92431.31;3386146;26;997;-72
2024/04/16 07:03:02;;;;;;;;;;;;;;;22.22;36.10;92435.25;3386380;26;1009;-72
2024/04/16 07:04:34;;;;;;;;;;;;;;;22.24;36.20;92432.09;3385033;26;1009;-72
2024/04/16 07:06:06;;;;;;;;;;;;;;;22.27;36.34;92431.34;3355904;26;947;-72
2024/04/16 07:07:38;;;;;;;;;;;;;;;22.31;36.08;92432.16;3363089;26;1074;-72
2024/04/16 07:09:09;;;;;;;;;;;;;;;22.31;36.17;92432.94;3370834;26;1114;-72
2024/04/16 07:10:41;;;;;;;;;;;;;;;22.29;35.65;92429.78;3377831;26;987;-72
2024/04/16 07:12:13;;;;;;;;;;;;;;;22.27;36.08;92432.13;3385096;26;1014;-72
2024/04/16 07:13:45;;;;;;;;;;;;;;;22.23;35.88;92430.56;3378005;26;993;-72
2024/04/16 07:15:17;;;;;;;;;;;;;;;22.18;35.98;92423.50;3385778;26;1832;-72
2024/04/16 07:16:49;;;;;;;;;;;;;;;22.15;36.01;92427.00;3384839;26;1458;-72
2024/04/16 07:18:21;;;;;;;;;;;;;;;22.14;36.15;92425.41;3377917;26;954;-72
2024/04/16 07:19:52;;;;;;;;;;;;;;;22.17;36.24;92427.41;3377821;26;960;-72
2024/04/16 07:21:24;;;;;;;;;;;;;;;22.18;35.96;92434.44;3378149;26;982;-72
2024/04/16 07:22:56;;;;;;;;;;;;;;;22.16;36.19;92435.97;3385882;26;1030;-72
2024/04/16 07:24:28;;;;;;;;;;;;;;;22.17;36.23;92437.53;3385068;26;1017;-72
2024/04/16 07:26:00;;;;;;;;;;;;;;;22.17;35.94;92427.41;3355586;26;979;-72
2024/04/16 07:27:36;;;;;;;;;;;;;;;22.22;35.81;92426.25;3379244;26;1043;-72
2024/04/16 07:29:08;;;;;;;;;;;;;;;22.26;35.51;92425.09;3379036;26;1036;-72
2024/04/16 07:30:40;;;;;;;;;;;;;;;22.23;35.76;92428.59;3377816;26;1052;-72
2024/04/16 07:32:12;;;;;;;;;;;;;;;22.25;35.63;92425.47;3377922;26;993;-72
2024/04/16 07:33:44;;;;;;;;;;;;;;;22.22;35.80;92424.31;3377851;26;989;-72
2024/04/16 07:35:16;;;;;;;;;;;;;;;22.23;36.05;92422.34;3377807;26;1836;-72
2024/04/16 07:36:47;;;;;;;;;;;;;;;22.25;35.45;92420.00;3385715;26;1057;-72
2024/04/16 07:38:20;;;;;;;;;;;;;;;22.21;35.63;92424.69;3362229;26;1224;-72
2024/04/16 07:39:51;;;;;;;;;;;;;;;22.17;35.67;92426.63;3377510;26;974;-72
2024/04/16 07:41:23;;;;;;;;;;;;;;;22.09;35.80;92421.13;3377561;26;986;-71
2024/04/16 07:42:55;;;;;;;;;;;;;;;22.04;35.88;92423.44;3385577;26;1079;-72
2024/04/16 07:44:27;;;;;;;;;;;;;;;22.00;36.18;92412.50;3385962;26;982;-72
2024/04/16 07:45:58;;;;;;;;;;;;;;;22.06;35.58;92410.16;3385886;26;1015;-73
2024/04/16 07:47:30;;;;;;;;;;;;;;;22.15;35.61;92415.28;3384962;26;1023;-72
2024/04/16 07:49:02;;;;;;;;;;;;;;;22.15;35.91;92428.94;3377582;26;1006;-72
2024/04/16 07:50:34;;;;;;;;;;;;;;;22.13;35.39;92429.31;3377344;26;1536;-72
2024/04/16 07:52:06;;;;;;;;;;;;;;;22.12;35.53;92438.72;3385803;26;1168;-72
2024/04/16 07:53:38;;;;;;;;;;;;;;;22.19;35.76;92440.69;3384855;26;1042;-72
2024/04/16 07:55:10;;;;;;;;;;;;;;;22.24;35.55;92437.56;3385672;26;974;-73
2024/04/16 07:56:43;;;;;;;;;;;;;;;22.35;35.43;92439.16;3384603;26;1842;-72
2024/04/16 07:58:15;;;;;;;;;;;;;;;22.37;35.23;92436.06;3385520;26;1059;-72
2024/04/16 07:59:46;;;;;;;;;;;;;;;22.37;35.21;92430.59;3384831;26;978;-72
2024/04/16 08:01:18;;;;;;;;;;;;;;;22.33;35.46;92438.78;3385351;26;997;-72
2024/04/16 08:02:50;;;;;;;;;;;;;;;22.30;35.49;92430.56;3385872;26;1046;-72
2024/04/16 08:04:22;;;;;;;;;;;;;;;22.31;35.27;92438.41;3385766;26;1011;-72
2024/04/16 08:05:54;;;;;;;;;;;;;;;22.34;35.59;92445.84;3386052;26;1086;-72
2024/04/16 08:07:26;;;;;;;;;;;;;;;22.38;35.51;92438.41;3386040;26;1045;-72
2024/04/16 08:08:57;;;;;;;;;;;;;;;22.41;35.42;92439.59;3386101;26;1009;-72